createdAt,value
2022-12-09T00:00:07.429Z,94691.19
2022-12-09T00:00:40.024Z,94686.25
2022-12-09T00:01:22.537Z,94684.97
2022-12-09T00:01:55.006Z,94692.75
2022-12-09T00:02:29.520Z,94686.06
2022-12-09T00:03:01.884Z,94691.19
2022-12-09T00:03:34.511Z,94680.94
2022-12-09T00:04:06.628Z,94685.84
2022-12-09T00:04:38.868Z,94685.25
2022-12-09T00:05:11.044Z,94686.94
2022-12-09T00:05:43.188Z,94687.44
2022-12-09T00:06:22.151Z,94682.28
2022-12-09T00:06:54.070Z,94685.53
2022-12-09T00:07:25.998Z,94684.03
2022-12-09T00:07:57.899Z,94683.75
2022-12-09T00:08:29.865Z,94683.03
2022-12-09T00:09:02.083Z,94678.75
2022-12-09T00:09:34.033Z,94683.75
2022-12-09T00:10:07.429Z,94675.31
2022-12-09T00:10:43.415Z,94678.47
2022-12-09T00:11:16.482Z,94680.94
2022-12-09T00:11:48.592Z,94680.38
2022-12-09T00:12:20.778Z,94680.44
2022-12-09T00:12:56.274Z,94678.56
2022-12-09T00:13:28.531Z,94678.47
2022-12-09T00:14:00.474Z,94673.34
2022-12-09T00:14:32.356Z,94675.84
2022-12-09T00:15:05.042Z,94676.59
2022-12-09T00:15:42.560Z,94677.94
2022-12-09T00:16:15.553Z,94677.16
2022-12-09T00:16:47.808Z,94675.38
2022-12-09T00:17:19.826Z,94682.13
2022-12-09T00:17:51.881Z,94682.50
2022-12-09T00:18:23.971Z,94677.38
2022-12-09T00:18:57.202Z,94680.00
2022-12-09T00:19:29.208Z,94685.00
2022-12-09T00:20:01.252Z,94688.25
2022-12-09T00:20:33.121Z,94685.69
2022-12-09T00:21:25.946Z,94684.84
2022-12-09T00:21:57.987Z,94689.41
2022-12-09T00:22:29.964Z,94690.75
2022-12-09T00:23:02.227Z,94686.34
2022-12-09T00:23:34.149Z,94680.47
2022-12-09T00:24:10.263Z,94683.31
2022-12-09T00:24:42.167Z,94683.03
2022-12-09T00:25:14.342Z,94679.81
2022-12-09T00:25:46.321Z,94675.00
2022-12-09T00:26:20.695Z,94679.72
2022-12-09T00:26:52.669Z,94672.38
2022-12-09T00:27:25.014Z,94676.59
2022-12-09T00:27:57.648Z,94665.78
2022-12-09T00:28:29.582Z,94673.03
2022-12-09T00:29:02.185Z,94667.22
2022-12-09T00:29:34.215Z,94668.84
2022-12-09T00:30:07.795Z,94673.19
2022-12-09T00:30:40.324Z,94658.88
2022-12-09T00:31:19.446Z,94665.34
2022-12-09T00:31:51.786Z,94660.22
2022-12-09T00:32:23.904Z,94659.16
2022-12-09T00:32:55.921Z,94659.78
2022-12-09T00:33:30.888Z,94659.63
2022-12-09T00:34:07.267Z,94664.34
2022-12-09T00:34:39.249Z,94661.13
2022-12-09T00:35:11.225Z,94666.13
2022-12-09T00:35:43.263Z,94663.00
2022-12-09T00:36:20.119Z,94667.19
2022-12-09T00:36:52.022Z,94668.44
2022-12-09T00:37:23.936Z,94666.66
2022-12-09T00:37:55.865Z,94666.03
2022-12-09T00:38:28.403Z,94661.81
2022-12-09T00:39:01.397Z,94670.34
2022-12-09T00:39:33.308Z,94665.50
2022-12-09T00:40:07.062Z,94667.09
2022-12-09T00:40:39.446Z,94656.94
2022-12-09T00:41:12.667Z,94667.91
2022-12-09T00:41:44.666Z,94664.00
2022-12-09T00:42:16.631Z,94659.69
2022-12-09T00:42:48.782Z,94659.16
2022-12-09T00:43:20.845Z,94656.75
2022-12-09T00:43:52.779Z,94650.78
2022-12-09T00:44:24.701Z,94653.16
2022-12-09T00:44:56.868Z,94653.97
2022-12-09T00:45:28.926Z,94655.94
2022-12-09T00:46:01.068Z,94654.16
2022-12-09T00:46:33.494Z,94647.66
2022-12-09T00:47:05.706Z,94665.91
2022-12-09T00:47:38.122Z,94656.88
2022-12-09T00:48:10.149Z,94655.03
2022-12-09T00:48:43.510Z,94660.03
2022-12-09T00:49:15.793Z,94658.06
2022-12-09T00:49:47.836Z,94657.31
2022-12-09T00:50:19.821Z,94656.44
2022-12-09T00:50:51.964Z,94650.13
2022-12-09T00:51:25.244Z,94659.00
2022-12-09T00:51:57.280Z,94655.63
2022-12-09T00:52:29.548Z,94659.97
2022-12-09T00:53:01.580Z,94658.88
2022-12-09T00:53:33.844Z,94653.88
2022-12-09T00:54:06.157Z,94652.38
2022-12-09T00:54:38.357Z,94654.00
2022-12-09T00:55:10.688Z,94651.78
2022-12-09T00:55:42.900Z,94654.16
2022-12-09T00:56:15.339Z,94649.31
2022-12-09T00:56:47.425Z,94652.63
2022-12-09T00:57:19.831Z,94645.03
2022-12-09T00:57:51.885Z,94645.13
2022-12-09T00:58:24.564Z,94640.78
2022-12-09T00:58:58.128Z,94648.88
2022-12-09T00:59:30.279Z,94654.56
2022-12-09T01:00:02.657Z,94650.25
2022-12-09T01:00:34.973Z,94646.88
2022-12-09T01:01:07.230Z,94649.44
2022-12-09T01:01:39.380Z,94647.66
2022-12-09T01:02:11.573Z,94653.91
2022-12-09T01:02:43.650Z,94653.91
2022-12-09T01:03:17.784Z,94651.06
2022-12-09T01:03:50.364Z,94652.22
2022-12-09T01:04:24.676Z,94653.22
2022-12-09T01:04:56.728Z,94652.22
2022-12-09T01:05:28.691Z,94649.72
2022-12-09T01:06:00.721Z,94642.97
2022-12-09T01:06:32.723Z,94645.00
2022-12-09T01:07:04.802Z,94638.09
2022-12-09T01:07:37.655Z,94637.06
2022-12-09T01:08:11.136Z,94638.66
2022-12-09T01:08:43.290Z,94635.59
2022-12-09T01:09:15.553Z,94636.53
2022-12-09T01:09:47.799Z,94630.88
2022-12-09T01:10:19.836Z,94627.50
2022-12-09T01:10:51.793Z,94632.63
2022-12-09T01:11:27.281Z,94634.56
2022-12-09T01:11:59.164Z,94639.56
2022-12-09T01:12:31.057Z,94643.81
2022-12-09T01:13:03.260Z,94642.06
2022-12-09T01:13:35.459Z,94646.44
2022-12-09T01:14:07.385Z,94647.63
2022-12-09T01:14:39.354Z,94649.88
2022-12-09T01:15:11.848Z,94651.94
2022-12-09T01:15:44.715Z,94657.31
2022-12-09T01:16:25.963Z,94657.19
2022-12-09T01:16:57.956Z,94658.78
2022-12-09T01:17:30.300Z,94665.31
2022-12-09T01:18:02.318Z,94660.41
2022-12-09T01:18:34.248Z,94657.19
2022-12-09T01:19:09.001Z,94661.69
2022-12-09T01:19:41.376Z,94654.88
2022-12-09T01:20:13.271Z,94656.38
2022-12-09T01:20:45.153Z,94656.44
2022-12-09T01:21:17.356Z,94658.06
2022-12-09T01:21:49.535Z,94652.53
2022-12-09T01:22:21.427Z,94653.25
2022-12-09T01:22:53.281Z,94649.91
2022-12-09T01:23:26.147Z,94640.72
2022-12-09T01:23:58.192Z,94647.06
2022-12-09T01:24:30.121Z,94637.63
2022-12-09T01:25:02.562Z,94638.41
2022-12-09T01:25:34.767Z,94631.47
2022-12-09T01:26:08.159Z,94628.50
2022-12-09T01:26:40.843Z,94628.22
2022-12-09T01:27:13.139Z,94632.28
2022-12-09T01:27:45.088Z,94623.69
2022-12-09T01:28:17.105Z,94618.56
2022-12-09T01:28:52.824Z,94622.69
2022-12-09T01:29:25.385Z,94620.91
2022-12-09T01:29:57.279Z,94622.41
2022-12-09T01:30:29.520Z,94617.97
2022-12-09T01:31:17.842Z,94631.97
2022-12-09T01:31:50.066Z,94626.09
2022-12-09T01:32:22.296Z,94634.16
2022-12-09T01:32:54.653Z,94632.41
2022-12-09T01:33:26.775Z,94633.88
2022-12-09T01:33:58.797Z,94632.81
2022-12-09T01:34:30.713Z,94632.69
2022-12-09T01:35:05.148Z,94628.94
2022-12-09T01:35:41.568Z,94627.84
2022-12-09T01:36:23.982Z,94625.63
2022-12-09T01:36:56.272Z,94625.16
2022-12-09T01:37:28.275Z,94623.53
2022-12-09T01:38:00.946Z,94620.47
2022-12-09T01:38:33.146Z,94622.22
2022-12-09T01:39:05.710Z,94626.28
2022-12-09T01:39:37.824Z,94618.84
2022-12-09T01:40:17.037Z,94627.22
2022-12-09T01:40:49.410Z,94622.88
2022-12-09T01:41:22.320Z,94627.09
2022-12-09T01:41:54.298Z,94622.09
2022-12-09T01:42:27.397Z,94618.97
2022-12-09T01:42:59.255Z,94617.25
2022-12-09T01:43:31.238Z,94617.09
2022-12-09T01:44:10.500Z,94616.56
2022-12-09T01:45:23.568Z,94620.03
2022-12-09T01:45:56.120Z,94615.91
2022-12-09T01:46:28.212Z,94620.03
2022-12-09T01:47:02.469Z,94626.94
2022-12-09T01:47:34.841Z,94628.41
2022-12-09T01:48:14.476Z,94626.94
2022-12-09T01:48:47.305Z,94635.31
2022-12-09T01:49:36.164Z,94628.50
2022-12-09T01:50:09.167Z,94626.97
2022-12-09T01:50:58.927Z,94631.81
2022-12-09T01:51:31.779Z,94630.88
2022-12-09T01:52:14.800Z,94624.66
2022-12-09T01:52:48.168Z,94626.44
2022-12-09T01:53:25.231Z,94619.66
2022-12-09T01:53:57.207Z,94623.84
2022-12-09T01:54:30.924Z,94631.16
2022-12-09T01:55:03.051Z,94635.28
2022-12-09T01:55:35.443Z,94635.19
2022-12-09T01:56:13.913Z,94639.22
2022-12-09T01:56:45.881Z,94636.13
2022-12-09T01:57:18.085Z,94626.44
2022-12-09T01:57:50.586Z,94628.69
2022-12-09T01:58:22.478Z,94634.47
2022-12-09T01:58:57.626Z,94626.88
2022-12-09T01:59:29.903Z,94623.53
2022-12-09T02:00:02.763Z,94617.72
2022-12-09T02:00:35.283Z,94617.50
2022-12-09T02:01:07.783Z,94622.66
2022-12-09T02:01:41.735Z,94622.84
2022-12-09T02:02:18.428Z,94618.44
2022-12-09T02:02:52.757Z,94619.13
2022-12-09T02:03:25.540Z,94622.28
2022-12-09T02:03:57.868Z,94620.59
2022-12-09T02:04:35.029Z,94622.38
2022-12-09T02:05:08.109Z,94625.59
2022-12-09T02:05:40.142Z,94622.00
2022-12-09T02:06:12.206Z,94620.31
2022-12-09T02:06:44.545Z,94621.56
2022-12-09T02:07:19.217Z,94625.00
2022-12-09T02:07:52.199Z,94621.84
2022-12-09T02:08:24.279Z,94612.72
2022-12-09T02:08:58.003Z,94605.91
2022-12-09T02:09:30.594Z,94610.22
2022-12-09T02:10:12.981Z,94603.19
2022-12-09T02:11:07.215Z,94596.72
2022-12-09T02:11:55.574Z,94597.41
2022-12-09T02:12:42.190Z,94594.53
2022-12-09T02:13:37.036Z,94599.53
2022-12-09T02:14:15.912Z,94592.41
2022-12-09T02:15:07.491Z,94604.38
2022-12-09T02:15:48.335Z,94592.84
2022-12-09T02:16:24.019Z,94594.53
2022-12-09T02:17:29.982Z,94601.31
2022-12-09T02:18:38.696Z,94597.53
2022-12-09T02:19:51.970Z,94605.66
2022-12-09T02:20:35.921Z,94608.06
2022-12-09T02:21:25.757Z,94600.78
2022-12-09T02:22:00.124Z,94603.28
2022-12-09T02:22:40.426Z,94599.69
2022-12-09T02:23:47.036Z,94603.06
2022-12-09T02:24:23.600Z,94596.47
2022-12-09T02:25:17.821Z,94599.84
2022-12-09T02:26:04.132Z,94599.97
2022-12-09T02:26:49.062Z,94604.03
2022-12-09T02:27:30.592Z,94605.56
2022-12-09T02:28:46.578Z,94607.66
2022-12-09T02:29:40.659Z,94607.19
2022-12-09T02:30:23.236Z,94595.91
2022-12-09T02:31:35.837Z,94597.41
2022-12-09T02:32:58.538Z,94594.00
2022-12-09T02:34:07.319Z,94591.78
2022-12-09T02:35:18.885Z,94582.84
2022-12-09T02:36:04.127Z,94580.25
2022-12-09T02:37:09.211Z,94581.81
2022-12-09T02:38:09.959Z,94572.72
2022-12-09T02:38:43.766Z,94569.47
2022-12-09T02:39:15.938Z,94562.59
2022-12-09T02:40:00.079Z,94572.16
2022-12-09T02:40:42.700Z,94569.03
2022-12-09T02:41:26.340Z,94567.63
2022-12-09T02:42:00.966Z,94570.66
2022-12-09T02:42:35.907Z,94568.59
2022-12-09T02:43:10.016Z,94565.09
2022-12-09T02:43:50.328Z,94571.72
2022-12-09T02:44:24.418Z,94561.72
2022-12-09T02:44:58.502Z,94573.13
2022-12-09T02:45:32.268Z,94564.75
2022-12-09T02:46:07.222Z,94562.75
2022-12-09T02:46:41.855Z,94563.25
2022-12-09T02:47:18.973Z,94556.44
2022-12-09T02:47:52.797Z,94552.97
2022-12-09T02:48:34.121Z,94555.19
2022-12-09T02:49:06.195Z,94547.69
2022-12-09T02:49:40.774Z,94560.13
2022-12-09T02:50:15.694Z,94554.88
2022-12-09T02:50:51.765Z,94569.97
2022-12-09T02:51:27.463Z,94566.44
2022-12-09T02:51:59.964Z,94567.63
2022-12-09T02:52:33.958Z,94567.63
2022-12-09T02:53:10.494Z,94564.88
2022-12-09T02:53:44.663Z,94566.28
2022-12-09T02:54:19.476Z,94568.34
2022-12-09T02:54:52.547Z,94561.72
2022-12-09T02:55:25.206Z,94566.59
2022-12-09T02:55:58.449Z,94564.81
2022-12-09T02:56:31.687Z,94558.94
2022-12-09T02:57:16.997Z,94565.38
2022-12-09T02:57:54.074Z,94564.09
2022-12-09T02:58:26.088Z,94555.84
2022-12-09T02:58:58.138Z,94558.34
2022-12-09T02:59:30.075Z,94563.84
2022-12-09T03:00:02.701Z,94559.66
2022-12-09T03:00:34.980Z,94557.16
2022-12-09T03:01:23.153Z,94552.03
2022-12-09T03:02:13.028Z,94541.78
2022-12-09T03:02:50.513Z,94540.03
2022-12-09T03:03:23.238Z,94544.22
2022-12-09T03:03:56.067Z,94538.91
2022-12-09T03:04:30.056Z,94541.97
2022-12-09T03:05:10.445Z,94536.97
2022-12-09T03:06:10.216Z,94542.88
2022-12-09T03:06:52.336Z,94530.22
2022-12-09T03:07:30.255Z,94532.66
2022-12-09T03:08:34.962Z,94530.22
2022-12-09T03:09:12.130Z,94524.03
2022-12-09T03:09:48.390Z,94518.88
2022-12-09T03:10:57.197Z,94524.47
2022-12-09T03:11:30.397Z,94527.31
2022-12-09T03:12:08.867Z,94518.84
2022-12-09T03:12:43.443Z,94520.75
2022-12-09T03:14:12.546Z,94518.47
2022-12-09T03:14:51.998Z,94519.63
2022-12-09T03:15:28.209Z,94512.44
2022-12-09T03:16:18.550Z,94521.38
2022-12-09T03:17:14.005Z,94523.88
2022-12-09T03:17:46.811Z,94527.84
2022-12-09T03:18:21.529Z,94527.34
2022-12-09T03:19:01.798Z,94534.78
2022-12-09T03:20:00.930Z,94533.47
2022-12-09T03:20:38.632Z,94532.28
2022-12-09T03:21:12.174Z,94533.75
2022-12-09T03:21:50.754Z,94530.91
2022-12-09T03:22:28.740Z,94523.19
2022-12-09T03:23:05.789Z,94522.28
2022-12-09T03:23:38.206Z,94526.72
2022-12-09T03:24:14.285Z,94523.19
2022-12-09T03:25:05.545Z,94522.44
2022-12-09T03:25:46.333Z,94520.19
2022-12-09T03:26:19.496Z,94516.16
2022-12-09T03:26:52.750Z,94520.25
2022-12-09T03:27:54.785Z,94520.09
2022-12-09T03:28:42.381Z,94519.69
2022-12-09T03:29:21.931Z,94523.72
2022-12-09T03:29:56.242Z,94517.53
2022-12-09T03:30:34.049Z,94526.16
2022-12-09T03:31:14.037Z,94527.69
2022-12-09T03:31:47.793Z,94524.38
2022-12-09T03:32:24.585Z,94532.84
2022-12-09T03:32:58.824Z,94531.31
2022-12-09T03:33:32.412Z,94520.34
2022-12-09T03:34:07.635Z,94520.91
2022-12-09T03:34:42.588Z,94517.25
2022-12-09T03:35:26.609Z,94521.47
2022-12-09T03:36:04.863Z,94518.06
2022-12-09T03:36:40.960Z,94516.31
2022-12-09T03:37:16.648Z,94514.84
2022-12-09T03:37:51.312Z,94512.91
2022-12-09T03:38:27.617Z,94517.19
2022-12-09T03:39:01.144Z,94513.66
2022-12-09T03:39:37.583Z,94513.88
2022-12-09T03:40:15.255Z,94516.31
2022-12-09T03:41:01.006Z,94518.72
2022-12-09T03:41:34.265Z,94517.03
2022-12-09T03:42:16.551Z,94516.88
2022-12-09T03:42:56.620Z,94515.13
2022-12-09T03:43:33.795Z,94515.84
2022-12-09T03:44:14.595Z,94516.47
2022-12-09T03:45:01.127Z,94518.22
2022-12-09T03:45:34.136Z,94519.22
2022-12-09T03:46:06.471Z,94515.44
2022-12-09T03:46:38.883Z,94517.78
2022-12-09T03:47:11.421Z,94515.66
2022-12-09T03:47:43.784Z,94514.94
2022-12-09T03:48:16.566Z,94504.94
2022-12-09T03:48:49.318Z,94511.47
2022-12-09T03:49:21.641Z,94511.63
2022-12-09T03:49:53.753Z,94519.25
2022-12-09T03:50:29.951Z,94514.13
2022-12-09T03:51:11.881Z,94510.06
2022-12-09T03:51:59.569Z,94508.31
2022-12-09T03:53:03.843Z,94512.50
2022-12-09T03:53:52.232Z,94500.91
2022-12-09T03:54:56.749Z,94500.75
2022-12-09T03:55:50.236Z,94503.16
2022-12-09T03:56:30.775Z,94493.81
2022-12-09T03:57:03.546Z,94499.94
2022-12-09T03:57:40.500Z,94493.47
2022-12-09T03:58:15.150Z,94495.59
2022-12-09T03:58:49.785Z,94492.94
2022-12-09T03:59:23.353Z,94497.03
2022-12-09T03:59:59.980Z,94492.72
2022-12-09T04:00:32.224Z,94491.13
2022-12-09T04:01:06.263Z,94490.00
2022-12-09T04:01:43.952Z,94491.31
2022-12-09T04:02:16.106Z,94488.06
2022-12-09T04:02:48.884Z,94493.22
2022-12-09T04:03:22.539Z,94495.72
2022-12-09T04:03:56.364Z,94488.88
2022-12-09T04:04:28.890Z,94491.47
2022-12-09T04:05:00.924Z,94483.69
2022-12-09T04:05:33.225Z,94489.63
2022-12-09T04:06:05.543Z,94486.91
2022-12-09T04:06:38.451Z,94486.91
2022-12-09T04:07:11.036Z,94476.91
2022-12-09T04:07:43.422Z,94478.69
2022-12-09T04:08:15.856Z,94477.06
2022-12-09T04:08:48.211Z,94482.81
2022-12-09T04:09:21.036Z,94480.16
2022-12-09T04:09:53.481Z,94481.91
2022-12-09T04:10:25.543Z,94482.06
2022-12-09T04:10:57.469Z,94481.75
2022-12-09T04:11:29.634Z,94489.56
2022-12-09T04:12:01.697Z,94485.31
2022-12-09T04:12:33.928Z,94487.06
2022-12-09T04:13:05.956Z,94486.03
2022-12-09T04:13:37.889Z,94483.38
2022-12-09T04:14:15.225Z,94488.38
2022-12-09T04:14:47.829Z,94480.31
2022-12-09T04:15:19.990Z,94485.16
2022-12-09T04:15:52.277Z,94477.72
2022-12-09T04:16:24.490Z,94481.63
2022-12-09T04:16:56.857Z,94486.75
2022-12-09T04:17:29.080Z,94483.69
2022-12-09T04:18:01.603Z,94483.53
2022-12-09T04:18:33.776Z,94480.97
2022-12-09T04:19:06.363Z,94486.75
2022-12-09T04:19:38.801Z,94480.16
2022-12-09T04:20:11.972Z,94487.56
2022-12-09T04:20:44.091Z,94477.25
2022-12-09T04:21:16.128Z,94484.50
2022-12-09T04:21:48.292Z,94481.13
2022-12-09T04:22:20.185Z,94484.91
2022-12-09T04:22:52.264Z,94478.22
2022-12-09T04:23:24.479Z,94480.56
2022-12-09T04:23:56.544Z,94477.91
2022-12-09T04:24:28.877Z,94471.16
2022-12-09T04:25:00.886Z,94476.00
2022-12-09T04:25:32.874Z,94478.06
2022-12-09T04:26:05.517Z,94478.66
2022-12-09T04:26:37.464Z,94477.44
2022-12-09T04:27:12.588Z,94481.00
2022-12-09T04:27:44.905Z,94471.16
2022-12-09T04:28:17.072Z,94474.53
2022-12-09T04:28:50.176Z,94473.88
2022-12-09T04:29:22.406Z,94468.88
2022-12-09T04:29:54.281Z,94471.22
2022-12-09T04:30:26.443Z,94468.81
2022-12-09T04:30:59.392Z,94466.31
2022-12-09T04:31:31.629Z,94466.03
2022-12-09T04:32:04.346Z,94462.00
2022-12-09T04:32:36.735Z,94471.84
2022-12-09T04:33:09.334Z,94469.09
2022-12-09T04:33:41.926Z,94464.00
2022-12-09T04:34:13.956Z,94456.66
2022-12-09T04:34:46.145Z,94468.28
2022-12-09T04:35:18.043Z,94464.91
2022-12-09T04:35:49.952Z,94465.25
2022-12-09T04:36:21.950Z,94464.75
2022-12-09T04:36:54.228Z,94459.75
2022-12-09T04:37:26.732Z,94463.28
2022-12-09T04:37:58.677Z,94459.75
2022-12-09T04:38:30.970Z,94459.75
2022-12-09T04:39:03.280Z,94453.31
2022-12-09T04:39:35.407Z,94459.00
2022-12-09T04:40:08.957Z,94456.75
2022-12-09T04:40:41.530Z,94451.69
2022-12-09T04:41:15.172Z,94458.28
2022-12-09T04:41:47.197Z,94451.69
2022-12-09T04:42:19.076Z,94453.53
2022-12-09T04:42:51.255Z,94453.47
2022-12-09T04:43:23.244Z,94452.16
2022-12-09T04:43:55.390Z,94453.47
2022-12-09T04:44:27.385Z,94448.47
2022-12-09T04:44:59.563Z,94453.31
2022-12-09T04:45:31.894Z,94452.00
2022-12-09T04:46:08.126Z,94450.09
2022-12-09T04:46:40.397Z,94454.34
2022-12-09T04:47:12.715Z,94449.19
2022-12-09T04:47:44.927Z,94444.34
2022-12-09T04:48:17.320Z,94450.13
2022-12-09T04:48:49.401Z,94441.66
2022-12-09T04:49:21.368Z,94437.41
2022-12-09T04:49:53.326Z,94435.72
2022-12-09T04:50:25.897Z,94436.66
2022-12-09T04:50:59.481Z,94434.59
2022-12-09T04:51:39.031Z,94434.91
2022-12-09T04:52:11.938Z,94438.22
2022-12-09T04:52:44.050Z,94441.50
2022-12-09T04:53:16.291Z,94437.97
2022-12-09T04:53:48.246Z,94434.59
2022-12-09T04:54:20.135Z,94431.34
2022-12-09T04:54:52.113Z,94422.97
2022-12-09T04:55:23.981Z,94421.19
2022-12-09T04:56:19.151Z,94433.22
2022-12-09T04:56:51.132Z,94428.03
2022-12-09T04:57:23.479Z,94427.00
2022-12-09T04:57:55.472Z,94433.31
2022-12-09T04:58:27.695Z,94428.16
2022-12-09T04:58:59.952Z,94432.97
2022-12-09T04:59:32.409Z,94430.06
2022-12-09T05:00:07.477Z,94435.88
2022-12-09T05:00:40.373Z,94435.06
2022-12-09T05:01:20.483Z,94433.97
2022-12-09T05:01:56.020Z,94429.50
2022-12-09T05:02:28.212Z,94422.97
2022-12-09T05:03:00.302Z,94419.19
2022-12-09T05:03:32.888Z,94425.47
2022-12-09T05:04:05.570Z,94412.41
2022-12-09T05:04:38.077Z,94411.78
2022-12-09T05:05:10.740Z,94419.50
2022-12-09T05:05:43.256Z,94415.22
2022-12-09T05:06:15.792Z,94417.09
2022-12-09T05:06:48.094Z,94420.06
2022-12-09T05:07:20.942Z,94422.00
2022-12-09T05:07:53.397Z,94419.94
2022-12-09T05:08:31.157Z,94419.75
2022-12-09T05:09:04.384Z,94420.06
2022-12-09T05:09:36.542Z,94419.75
2022-12-09T05:10:10.587Z,94414.75
2022-12-09T05:10:50.743Z,94418.69
2022-12-09T05:11:24.416Z,94419.75
2022-12-09T05:11:58.128Z,94414.75
2022-12-09T05:12:30.271Z,94417.66
2022-12-09T05:13:02.686Z,94411.19
2022-12-09T05:13:34.893Z,94408.28
2022-12-09T05:14:06.751Z,94407.97
2022-12-09T05:14:38.947Z,94414.44
2022-12-09T05:15:11.549Z,94411.03
2022-12-09T05:15:43.637Z,94404.41
2022-12-09T05:16:18.614Z,94407.81
2022-12-09T05:16:51.053Z,94406.13
2022-12-09T05:17:23.502Z,94403.13
2022-12-09T05:17:55.654Z,94402.66
2022-12-09T05:18:29.062Z,94401.84
2022-12-09T05:19:01.592Z,94406.19
2022-12-09T05:19:33.916Z,94403.28
2022-12-09T05:20:07.516Z,94404.00
2022-12-09T05:20:40.654Z,94404.00
2022-12-09T05:21:17.931Z,94408.47
2022-12-09T05:21:50.244Z,94398.63
2022-12-09T05:22:22.403Z,94400.16
2022-12-09T05:22:54.388Z,94398.47
2022-12-09T05:23:26.598Z,94402.47
2022-12-09T05:23:58.972Z,94391.34
2022-12-09T05:24:31.840Z,94398.50
2022-12-09T05:25:04.075Z,94399.59
2022-12-09T05:25:36.709Z,94391.50
2022-12-09T05:26:12.579Z,94394.41
2022-12-09T05:26:44.620Z,94394.25
2022-12-09T05:27:16.774Z,94389.41
2022-12-09T05:27:49.306Z,94396.19
2022-12-09T05:28:21.648Z,94393.00
2022-12-09T05:28:56.667Z,94391.97
2022-12-09T05:29:28.816Z,94395.66
2022-12-09T05:30:01.251Z,94396.47
2022-12-09T05:30:33.548Z,94395.66
2022-12-09T05:31:11.523Z,94396.47
2022-12-09T05:31:44.016Z,94388.06
2022-12-09T05:32:16.078Z,94396.13
2022-12-09T05:32:48.344Z,94387.56
2022-12-09T05:33:21.011Z,94392.31
2022-12-09T05:33:53.436Z,94392.06
2022-12-09T05:34:25.875Z,94386.13
2022-12-09T05:34:57.961Z,94380.97
2022-12-09T05:35:29.967Z,94373.63
2022-12-09T05:36:02.115Z,94379.91
2022-12-09T05:36:34.269Z,94380.72
2022-12-09T05:37:06.541Z,94381.88
2022-12-09T05:37:38.578Z,94377.56
2022-12-09T05:38:10.663Z,94374.91
2022-12-09T05:38:43.240Z,94364.88
2022-12-09T05:39:15.264Z,94377.34
2022-12-09T05:39:47.161Z,94373.38
2022-12-09T05:40:19.565Z,94383.28
2022-12-09T05:40:52.047Z,94380.97
2022-12-09T05:41:25.148Z,94371.69
2022-12-09T05:41:57.650Z,94373.44
2022-12-09T05:42:29.972Z,94375.88
2022-12-09T05:43:02.247Z,94378.13
2022-12-09T05:43:35.667Z,94380.78
2022-12-09T05:44:07.710Z,94374.72
2022-12-09T05:44:39.576Z,94373.84
2022-12-09T05:45:11.953Z,94367.94
2022-12-09T05:45:44.968Z,94367.31
2022-12-09T05:46:17.045Z,94368.91
2022-12-09T05:46:49.848Z,94366.88
2022-12-09T05:47:22.129Z,94369.19
2022-12-09T05:47:54.325Z,94364.56
2022-12-09T05:48:26.616Z,94362.84
2022-12-09T05:48:58.774Z,94365.81
2022-12-09T05:49:31.479Z,94363.94
2022-12-09T05:50:08.205Z,94364.00
2022-12-09T05:50:41.131Z,94363.38
2022-12-09T05:51:25.684Z,94366.44
2022-12-09T05:51:58.535Z,94360.63
2022-12-09T05:52:30.748Z,94365.81
2022-12-09T05:53:03.293Z,94361.16
2022-12-09T05:53:35.397Z,94366.34
2022-12-09T05:54:07.619Z,94368.56
2022-12-09T05:54:40.095Z,94368.84
2022-12-09T05:55:12.179Z,94365.53
2022-12-09T05:55:44.878Z,94358.06
2022-12-09T05:56:19.110Z,94366.50
2022-12-09T05:56:51.877Z,94369.88
2022-12-09T05:57:24.261Z,94371.59
2022-12-09T05:57:56.229Z,94364.88
2022-12-09T05:58:28.854Z,94369.53
2022-12-09T05:59:00.878Z,94359.88
2022-12-09T05:59:33.322Z,94362.78
2022-12-09T06:00:07.773Z,94366.78
2022-12-09T06:00:40.261Z,94360.16
2022-12-09T06:01:13.129Z,94362.25
2022-12-09T06:01:45.265Z,94360.09
2022-12-09T06:02:17.513Z,94358.81
2022-12-09T06:02:50.130Z,94360.28
2022-12-09T06:03:23.388Z,94362.84
2022-12-09T06:03:56.352Z,94361.72
2022-12-09T06:04:28.742Z,94360.91
2022-12-09T06:05:01.276Z,94364.94
2022-12-09T06:05:33.617Z,94362.25
2022-12-09T06:06:15.723Z,94364.41
2022-12-09T06:06:48.069Z,94365.28
2022-12-09T06:07:20.599Z,94362.78
2022-12-09T06:07:53.105Z,94359.47
2022-12-09T06:08:25.377Z,94356.88
2022-12-09T06:09:00.664Z,94366.28
2022-12-09T06:09:33.208Z,94358.03
2022-12-09T06:10:06.917Z,94362.25
2022-12-09T06:10:41.351Z,94360.69
2022-12-09T06:11:18.210Z,94364.81
2022-12-09T06:11:50.315Z,94361.78
2022-12-09T06:12:22.811Z,94364.34
2022-12-09T06:12:55.458Z,94365.97
2022-12-09T06:13:28.050Z,94362.59
2022-12-09T06:14:00.218Z,94371.00
2022-12-09T06:14:32.537Z,94362.66
2022-12-09T06:15:07.116Z,94368.94
2022-12-09T06:15:41.825Z,94375.81
2022-12-09T06:16:17.554Z,94365.97
2022-12-09T06:16:49.689Z,94370.19
2022-12-09T06:17:22.287Z,94370.81
2022-12-09T06:17:54.416Z,94369.38
2022-12-09T06:18:26.652Z,94367.78
2022-12-09T06:18:59.307Z,94371.28
2022-12-09T06:19:31.813Z,94363.66
2022-12-09T06:20:05.351Z,94364.22
2022-12-09T06:20:41.732Z,94365.75
2022-12-09T06:21:17.747Z,94365.09
2022-12-09T06:21:50.054Z,94363.41
2022-12-09T06:22:22.440Z,94364.56
2022-12-09T06:22:54.685Z,94364.00
2022-12-09T06:23:26.985Z,94367.44
2022-12-09T06:23:59.322Z,94368.31
2022-12-09T06:24:31.507Z,94372.34
2022-12-09T06:25:04.909Z,94369.19
2022-12-09T06:25:37.077Z,94369.03
2022-12-09T06:26:27.617Z,94366.91
2022-12-09T06:26:59.649Z,94361.34
2022-12-09T06:27:31.990Z,94368.84
2022-12-09T06:28:04.738Z,94359.00
2022-12-09T06:28:36.725Z,94360.28
2022-12-09T06:29:09.416Z,94366.50
2022-12-09T06:29:41.309Z,94362.25
2022-12-09T06:30:13.714Z,94360.44
2022-12-09T06:30:45.913Z,94361.72
2022-12-09T06:31:18.963Z,94360.72
2022-12-09T06:31:51.533Z,94362.25
2022-12-09T06:32:23.824Z,94365.81
2022-12-09T06:32:56.324Z,94365.34
2022-12-09T06:34:20.368Z,94356.97
2022-12-09T06:34:52.461Z,94363.31
2022-12-09T06:35:25.390Z,94356.72
2022-12-09T06:36:02.180Z,94362.44
2022-12-09T06:36:34.477Z,94363.47
2022-12-09T06:37:06.911Z,94366.09
2022-12-09T06:37:39.146Z,94362.06
2022-12-09T06:38:11.403Z,94363.66
2022-12-09T06:38:43.783Z,94369.94
2022-12-09T06:39:15.995Z,94368.94
2022-12-09T06:39:48.035Z,94364.56
2022-12-09T06:40:22.802Z,94367.88
2022-12-09T06:40:55.373Z,94363.13
2022-12-09T06:41:27.604Z,94370.41
2022-12-09T06:42:00.011Z,94369.66
2022-12-09T06:42:31.971Z,94369.59
2022-12-09T06:43:04.351Z,94366.19
2022-12-09T06:43:36.949Z,94371.03
2022-12-09T06:44:14.794Z,94365.03
2022-12-09T06:44:51.794Z,94367.44
2022-12-09T06:45:23.676Z,94371.03
2022-12-09T06:45:55.914Z,94364.41
2022-12-09T06:46:29.557Z,94359.91
2022-12-09T06:47:01.817Z,94359.91
2022-12-09T06:47:34.035Z,94357.06
2022-12-09T06:48:06.479Z,94358.41
2022-12-09T06:48:38.903Z,94361.19
2022-12-09T06:49:11.377Z,94362.88
2022-12-09T06:49:43.888Z,94361.72
2022-12-09T06:50:16.862Z,94354.38
2022-12-09T06:50:52.107Z,94358.84
2022-12-09T06:51:26.074Z,94363.59
2022-12-09T06:51:58.286Z,94361.91
2022-12-09T06:52:30.590Z,94358.31
2022-12-09T06:53:02.573Z,94363.31
2022-12-09T06:53:34.811Z,94361.09